Time;durP1;ratioP1;P1;durP2;ratioP2;P2;SDS_P1;SDS_P2;PMS_P1;PMS_P2;Temp;Humidity;BMP_temperature;BMP_pressure;BME280_temperature;BME280_humidity;BME280_pressure;Samples;Min_cycle;Max_cycle;Signal;HPM_P1;HPM_P2
2023/11/10 00:02:17;;;;;;;13.10;8.10;;;;;;;8.98;82.31;99324.86;130199;1275;114791;-59
2023/11/10 00:05:21;;;;;;;10.20;8.60;;;;;;;9.05;82.26;99327.15;130097;1275;114785;-59
2023/11/10 00:08:23;;;;;;;10.60;8.00;;;;;;;9.11;82.26;99322.67;129855;1257;114861;-59
2023/11/10 00:11:26;;;;;;;13.40;7.90;;;;;;;9.17;81.96;99318.06;130094;1254;114956;-59
2023/11/10 00:14:29;;;;;;;14.80;8.10;;;;;;;9.23;81.97;99321.29;130067;1256;114796;-59
2023/11/10 00:17:31;;;;;;;12.00;7.90;;;;;;;9.27;81.75;99321.36;130242;1266;115258;-59
2023/11/10 00:20:36;;;;;;;14.70;8.60;;;;;;;9.31;81.63;99321.67;130112;1269;114797;-60
2023/11/10 00:23:38;;;;;;;12.60;8.70;;;;;;;9.35;81.62;99320.72;130049;1264;114705;-59
2023/11/10 00:26:40;;;;;;;15.30;9.20;;;;;;;9.38;81.43;99317.52;130236;1266;114795;-59
2023/11/10 00:29:44;;;;;;;10.20;8.00;;;;;;;9.40;81.39;99320.63;130082;1258;114729;-59
2023/11/10 00:32:46;;;;;;;11.00;7.80;;;;;;;9.41;81.37;99315.55;130017;1275;114839;-59
2023/11/10 00:35:49;;;;;;;11.30;8.20;;;;;;;9.43;81.31;99306.55;130279;1254;114804;-59
2023/11/10 00:38:51;;;;;;;11.70;8.50;;;;;;;9.43;81.07;99298.50;130139;1265;116353;-59
2023/11/10 00:41:53;;;;;;;12.10;8.10;;;;;;;9.43;81.07;99300.13;130205;1253;114833;-59
2023/11/10 00:44:56;;;;;;;9.90;8.40;;;;;;;9.43;81.13;99295.61;130223;1256;114759;-59
2023/11/10 00:48:00;;;;;;;12.00;8.50;;;;;;;9.44;81.00;99289.17;129783;1251;114748;-59
2023/11/10 00:51:02;;;;;;;10.60;8.20;;;;;;;9.46;81.03;99290.52;129713;1251;114778;-60
2023/11/10 00:54:04;;;;;;;16.70;9.10;;;;;;;9.47;81.05;99278.47;130084;1251;115460;-59
2023/11/10 00:57:06;;;;;;;21.00;11.80;;;;;;;9.49;81.27;99284.98;130376;1251;114757;-59
2023/11/10 01:00:11;;;;;;;16.10;11.40;;;;;;;9.46;81.14;99296.58;129982;1257;115243;-59
2023/11/10 01:03:13;;;;;;;17.20;11.30;;;;;;;9.42;81.40;99299.45;129828;1260;114889;-60
2023/11/10 01:06:16;;;;;;;20.90;10.50;;;;;;;9.38;81.32;99296.70;130085;1254;114735;-59
2023/11/10 01:09:18;;;;;;;15.80;11.90;;;;;;;9.34;81.41;99300.33;130099;1257;114789;-59
2023/11/10 01:12:20;;;;;;;20.80;12.20;;;;;;;9.27;81.53;99299.97;130175;1275;115398;-59
2023/11/10 01:15:22;;;;;;;16.60;11.60;;;;;;;9.24;81.81;99295.88;129823;1261;127849;-59
2023/11/10 01:18:24;;;;;;;18.50;12.40;;;;;;;9.22;81.96;99293.54;130087;1270;115035;-58
2023/11/10 01:21:26;;;;;;;14.70;11.30;;;;;;;9.18;82.05;99289.50;130135;1272;114801;-58
2023/11/10 01:24:28;;;;;;;17.90;12.10;;;;;;;9.15;82.17;99285.23;130017;1261;114644;-58
2023/11/10 01:27:31;;;;;;;16.10;11.00;;;;;;;9.09;82.04;99285.20;130050;1274;114806;-58
2023/11/10 01:30:36;;;;;;;17.60;12.40;;;;;;;9.07;82.40;99279.27;130335;1257;114826;-59
2023/11/10 01:33:38;;;;;;;16.30;11.80;;;;;;;9.05;82.28;99276.05;130227;1255;114718;-59
2023/11/10 01:36:40;;;;;;;17.70;12.40;;;;;;;8.97;82.02;99266.55;130140;1269;114703;-59
2023/11/10 01:39:43;;;;;;;22.00;14.10;;;;;;;8.90;81.82;99261.41;130367;1251;114742;-62
2023/11/10 01:42:45;;;;;;;19.20;13.50;;;;;;;8.85;82.08;99253.54;130032;1251;116132;-58
2023/11/10 01:45:47;;;;;;;16.40;12.10;;;;;;;8.79;82.01;99246.56;130134;1264;114700;-59
2023/11/10 01:48:49;;;;;;;17.30;12.30;;;;;;;8.72;82.24;99241.83;130283;1274;114872;-59
2023/11/10 01:51:55;;;;;;;15.90;12.30;;;;;;;8.65;81.80;99233.30;130191;1251;114766;-59
2023/11/10 01:54:58;;;;;;;22.50;12.30;;;;;;;8.59;82.10;99234.21;129825;1275;128522;-59
2023/11/10 01:58:01;;;;;;;20.90;13.20;;;;;;;8.54;82.30;99237.90;130128;1257;114914;-59
2023/11/10 02:01:08;;;;;;;19.60;13.40;;;;;;;8.50;82.14;99239.34;130080;1257;114840;-60
2023/11/10 02:04:12;;;;;;;19.20;13.10;;;;;;;8.49;82.38;99239.58;129700;1260;114894;-58
2023/11/10 02:07:14;;;;;;;19.00;13.20;;;;;;;8.47;82.59;99237.73;130181;1267;114688;-59
2023/11/10 02:10:20;;;;;;;18.10;13.30;;;;;;;8.43;82.46;99230.33;130084;1274;114710;-59
2023/11/10 02:13:22;;;;;;;23.00;14.30;;;;;;;8.39;82.28;99221.47;129961;1254;116561;-59
2023/11/10 02:16:25;;;;;;;25.90;13.60;;;;;;;8.36;82.58;99216.98;130113;1257;114828;-60
2023/11/10 02:19:27;;;;;;;25.40;15.30;;;;;;;8.32;82.83;99212.76;130145;1269;114730;-59
2023/11/10 02:22:29;;;;;;;18.70;13.20;;;;;;;8.30;82.81;99214.30;130027;1257;114888;-59
2023/11/10 02:25:31;;;;;;;21.80;14.40;;;;;;;8.30;83.19;99212.71;129862;1259;115000;-59
2023/11/10 02:28:35;;;;;;;18.20;12.90;;;;;;;8.29;82.78;99209.59;130116;1256;114751;-59
2023/11/10 02:31:37;;;;;;;21.50;13.00;;;;;;;8.26;83.17;99204.59;130188;1253;114698;-59
2023/11/10 02:34:39;;;;;;;15.10;11.80;;;;;;;8.24;83.11;99200.83;130151;1254;114850;-59
2023/11/10 02:37:42;;;;;;;18.40;12.60;;;;;;;8.23;83.29;99196.77;130130;1257;114693;-59
2023/11/10 02:40:44;;;;;;;19.10;12.20;;;;;;;8.21;83.15;99199.00;129884;1254;114873;-58
2023/11/10 02:43:46;;;;;;;19.10;12.50;;;;;;;8.19;83.24;99193.61;130226;1251;115128;-59
2023/11/10 02:46:48;;;;;;;17.10;11.90;;;;;;;8.17;83.27;99196.20;130168;1254;114686;-59
2023/11/10 02:49:51;;;;;;;15.10;11.30;;;;;;;8.15;83.32;99190.61;130297;1251;114810;-59
2023/11/10 02:52:53;;;;;;;17.80;12.10;;;;;;;8.14;83.37;99185.73;129792;1254;115201;-59
2023/11/10 02:55:55;;;;;;;15.20;11.30;;;;;;;8.12;83.42;99188.65;130170;1251;114718;-59
2023/11/10 02:58:57;;;;;;;17.10;11.30;;;;;;;8.11;83.37;99182.71;130185;1270;114811;-58
2023/11/10 03:02:00;;;;;;;15.20;10.40;;;;;;;8.09;83.23;99183.13;130049;1254;114728;-58
2023/11/10 03:05:03;;;;;;;17.30;11.10;;;;;;;8.09;83.14;99182.11;129961;1259;115080;-59
2023/11/10 03:08:05;;;;;;;15.20;10.70;;;;;;;8.08;83.30;99175.23;130058;1254;114864;-59
2023/11/10 03:11:07;;;;;;;15.10;10.60;;;;;;;8.06;83.81;99170.13;130050;1254;115937;-59
2023/11/10 03:14:09;;;;;;;20.10;11.40;;;;;;;8.05;83.51;99163.65;130199;1255;114750;-59
2023/11/10 03:17:12;;;;;;;14.00;11.20;;;;;;;8.04;83.63;99161.20;129978;1251;115114;-59
2023/11/10 03:20:15;;;;;;;15.80;11.20;;;;;;;8.03;83.59;99159.67;130329;1256;114734;-59
2023/11/10 03:23:17;;;;;;;16.00;11.10;;;;;;;8.01;83.60;99156.04;130334;1267;115293;-60
2023/11/10 03:26:19;;;;;;;15.10;11.50;;;;;;;8.00;83.60;99151.66;130138;1251;115509;-59
2023/11/10 03:29:22;;;;;;;13.90;10.80;;;;;;;7.99;83.56;99149.95;130252;1254;114764;-59
2023/11/10 03:32:24;;;;;;;15.40;10.40;;;;;;;7.96;83.32;99141.22;130095;1275;115517;-59
2023/11/10 03:35:26;;;;;;;11.80;9.60;;;;;;;7.93;83.52;99143.52;130008;1256;115406;-60
2023/11/10 03:38:28;;;;;;;15.10;10.10;;;;;;;7.91;83.25;99144.00;130043;1255;115358;-59
2023/11/10 03:41:31;;;;;;;14.00;10.60;;;;;;;7.89;83.32;99141.98;130091;1257;114705;-59
2023/11/10 03:44:34;;;;;;;15.20;10.50;;;;;;;7.86;83.45;99138.21;130040;1257;114785;-59
2023/11/10 03:47:36;;;;;;;14.20;10.10;;;;;;;7.84;83.87;99135.50;130187;1254;114702;-59
2023/11/10 03:50:41;;;;;;;11.90;9.70;;;;;;;7.83;83.56;99132.39;130170;1256;115092;-60
2023/11/10 03:53:45;;;;;;;14.10;8.20;;;;;;;7.81;83.82;99135.52;130216;1254;114711;-59
2023/11/10 03:56:47;;;;;;;15.00;10.20;;;;;;;7.80;83.93;99136.78;130057;1273;115051;-59
2023/11/10 03:59:50;;;;;;;14.60;9.90;;;;;;;7.80;83.57;99136.98;130229;1275;115375;-59
2023/11/10 04:02:53;;;;;;;12.10;10.10;;;;;;;7.80;83.81;99141.05;130194;1275;114718;-59
2023/11/10 04:05:55;;;;;;;13.10;9.70;;;;;;;7.80;83.45;99147.09;127926;1254;3313552;-59
2023/11/10 04:08:57;;;;;;;13.60;9.90;;;;;;;7.81;83.73;99144.05;130144;1255;115253;-58
2023/11/10 04:12:01;;;;;;;11.90;10.10;;;;;;;7.80;83.77;99148.67;129817;1259;114752;-59
2023/11/10 04:15:05;;;;;;;16.70;10.50;;;;;;;7.80;83.74;99148.36;130277;1256;114721;-59
2023/11/10 04:18:07;;;;;;;15.80;9.90;;;;;;;7.78;83.91;99142.44;130173;1254;114931;-59
2023/11/10 04:21:09;;;;;;;15.10;10.20;;;;;;;7.77;83.85;99141.45;130290;1257;115414;-59
2023/11/10 04:24:11;;;;;;;13.50;10.10;;;;;;;7.77;84.15;99135.92;129985;1268;115182;-61
2023/11/10 04:27:14;;;;;;;13.10;9.10;;;;;;;7.78;84.25;99130.17;129710;1254;114772;-59
2023/11/10 04:30:16;;;;;;;12.40;8.70;;;;;;;7.79;84.15;99127.59;130117;1257;114720;-59
2023/11/10 04:33:20;;;;;;;11.50;9.20;;;;;;;7.81;84.27;99122.90;130162;1254;115366;-59
2023/11/10 04:36:23;;;;;;;;;;;;;;;7.82;84.06;99119.77;130184;1257;114709;-59
2023/11/10 04:39:25;;;;;;;12.40;9.70;;;;;;;7.84;84.24;99110.27;130174;1257;114773;-59
2023/11/10 04:42:27;;;;;;;13.20;9.30;;;;;;;7.86;84.01;99110.34;130168;1258;114953;-59
2023/11/10 04:45:29;;;;;;;10.90;9.60;;;;;;;7.88;84.08;99112.68;129911;1257;128516;-59
2023/11/10 04:48:32;;;;;;;15.10;10.30;;;;;;;7.90;84.67;99107.02;130164;1256;114773;-59
2023/11/10 04:51:34;;;;;;;14.40;9.40;;;;;;;7.93;84.55;99106.21;130127;1252;114702;-59
2023/11/10 04:54:38;;;;;;;11.90;9.80;;;;;;;7.95;84.15;99108.92;130160;1257;114752;-59
2023/11/10 04:57:40;;;;;;;16.90;9.70;;;;;;;7.99;84.24;99106.35;130271;1275;114763;-59
2023/11/10 05:00:42;;;;;;;11.50;9.30;;;;;;;8.02;84.36;99106.54;130085;1254;114775;-59
2023/11/10 05:03:45;;;;;;;16.90;10.50;;;;;;;8.05;84.27;99108.89;130301;1257;114757;-59
2023/11/10 05:06:47;;;;;;;14.70;9.70;;;;;;;8.06;84.30;99107.38;130096;1254;128370;-59
2023/11/10 05:09:51;;;;;;;12.60;9.80;;;;;;;8.06;84.10;99101.70;130019;1256;115202;-58
2023/11/10 05:12:53;;;;;;;14.20;9.10;;;;;;;8.05;84.07;99101.76;130099;1254;115150;-59
2023/11/10 05:15:55;;;;;;;13.30;9.00;;;;;;;8.03;83.89;99097.77;130130;1256;115141;-60
2023/11/10 05:19:00;;;;;;;11.50;8.90;;;;;;;8.00;83.99;99092.05;130084;1275;114701;-60
2023/11/10 05:22:02;;;;;;;18.00;9.70;;;;;;;7.97;84.16;99088.70;129603;1275;114915;-60
2023/11/10 05:25:06;;;;;;;12.10;9.40;;;;;;;7.94;83.68;99091.77;130140;1275;115090;-60
2023/11/10 05:28:08;;;;;;;11.60;8.90;;;;;;;7.90;83.55;99095.72;130005;1257;114750;-60
2023/11/10 05:31:10;;;;;;;11.60;9.30;;;;;;;7.87;83.78;99099.80;130006;1259;115190;-60
2023/11/10 05:34:12;;;;;;;11.40;8.90;;;;;;;7.83;83.71;99104.46;130296;1254;114820;-60
2023/11/10 05:37:15;;;;;;;12.80;8.80;;;;;;;7.81;84.05;99106.52;130147;1254;115147;-60
2023/11/10 05:40:17;;;;;;;13.50;9.10;;;;;;;7.81;84.02;99105.48;130270;1254;114721;-59
2023/11/10 05:43:19;;;;;;;12.10;8.80;;;;;;;7.81;84.03;99102.10;130146;1275;114699;-61
2023/11/10 05:46:22;;;;;;;12.70;8.80;;;;;;;7.82;84.31;99101.34;130059;1275;114752;-61
2023/11/10 05:49:24;;;;;;;14.00;9.70;;;;;;;7.83;84.18;99100.92;130179;1255;114701;-59
2023/11/10 05:52:29;;;;;;;11.40;9.50;;;;;;;7.85;84.35;99103.47;129833;1260;115244;-59
2023/11/10 05:55:32;;;;;;;13.90;9.60;;;;;;;7.86;84.19;99106.76;129955;1256;114708;-59
2023/11/10 05:58:35;;;;;;;9.90;8.60;;;;;;;7.87;84.39;99103.49;129750;1257;116339;-59
2023/11/10 06:01:37;;;;;;;12.30;8.30;;;;;;;7.88;84.24;99104.71;129896;1254;115205;-59
2023/11/10 06:04:39;;;;;;;8.90;7.90;;;;;;;7.87;84.30;99106.48;130003;1256;114722;-59
2023/11/10 06:07:45;;;;;;;9.40;8.20;;;;;;;7.87;84.21;99100.13;129531;1274;128493;-59
2023/11/10 06:10:52;;;;;;;9.10;7.50;;;;;;;7.87;84.30;99100.31;130022;1277;114718;-59
2023/11/10 06:13:56;;;;;;;11.90;8.20;;;;;;;7.86;84.04;99100.52;129936;1256;114806;-59
2023/11/10 06:16:58;;;;;;;11.80;7.80;;;;;;;7.86;83.93;99103.04;129618;1260;114898;-59
2023/11/10 06:20:03;;;;;;;8.70;7.80;;;;;;;7.86;84.06;99099.50;129913;1255;114713;-59
2023/11/10 06:23:06;;;;;;;11.70;8.70;;;;;;;7.85;84.18;99093.83;129655;1277;128511;-59
2023/11/10 06:26:10;;;;;;;10.50;8.70;;;;;;;7.85;84.12;99098.13;129993;1259;114810;-60
2023/11/10 06:29:12;;;;;;;14.30;10.10;;;;;;;7.85;84.19;99100.63;129961;1259;115071;-59
2023/11/10 06:32:18;;;;;;;15.40;11.40;;;;;;;7.85;84.10;99098.46;129934;1255;114724;-60
2023/11/10 06:35:21;;;;;;;11.40;8.40;;;;;;;7.85;83.99;99095.10;129765;1261;114809;-59
2023/11/10 06:38:23;;;;;;;12.30;8.80;;;;;;;7.84;84.01;99091.97;130137;1254;128819;-59
2023/11/10 06:41:25;;;;;;;14.10;9.30;;;;;;;7.83;84.15;99088.61;130054;1274;114683;-59
2023/11/10 06:44:28;;;;;;;12.10;9.40;;;;;;;7.84;83.89;99092.11;130048;1255;115079;-59
2023/11/10 06:47:30;;;;;;;13.80;10.00;;;;;;;7.86;84.48;99098.23;129719;1260;115200;-58
2023/11/10 06:50:32;;;;;;;11.00;9.20;;;;;;;7.89;84.24;99094.85;130088;1257;114799;-58
2023/11/10 06:53:34;;;;;;;10.90;8.90;;;;;;;7.93;84.17;99092.52;130229;1257;115039;-59
2023/11/10 06:56:37;;;;;;;17.80;9.20;;;;;;;7.96;84.29;99095.67;129767;1275;115332;-58
2023/11/10 06:59:39;;;;;;;12.70;9.00;;;;;;;8.00;84.59;99095.45;130132;1275;114942;-59
2023/11/10 07:02:42;;;;;;;13.50;9.50;;;;;;;8.03;84.34;99094.56;130221;1272;114750;-59
2023/11/10 07:05:44;;;;;;;13.10;9.80;;;;;;;8.05;84.59;99095.70;130279;1272;114648;-59
2023/11/10 07:08:46;;;;;;;13.40;9.30;;;;;;;8.07;84.30;99094.73;130050;1259;114891;-59
2023/11/10 07:11:48;;;;;;;14.50;9.70;;;;;;;8.09;84.55;99100.10;130233;1275;114654;-59
2023/11/10 07:14:50;;;;;;;11.70;8.80;;;;;;;8.13;84.67;99103.60;130350;1274;115164;-59
2023/11/10 07:17:53;;;;;;;11.40;8.30;;;;;;;8.18;84.36;99106.90;129808;1251;114752;-59
2023/11/10 07:20:56;;;;;;;13.00;9.50;;;;;;;8.23;84.55;99108.89;130250;1251;115135;-59
2023/11/10 07:23:59;;;;;;;12.50;9.50;;;;;;;8.33;84.72;99113.27;130272;1254;114780;-61
2023/11/10 07:27:06;;;;;;;14.00;9.10;;;;;;;8.46;84.58;99118.03;130292;1255;114690;-59
2023/11/10 07:30:09;;;;;;;14.30;9.30;;;;;;;8.61;84.64;99120.19;130055;1269;115167;-59
2023/11/10 07:33:11;;;;;;;14.50;10.50;;;;;;;8.78;84.81;99120.79;130034;1257;115133;-59
2023/11/10 07:36:14;;;;;;;20.70;12.20;;;;;;;8.96;84.65;99119.86;130082;1275;114743;-59
2023/11/10 07:39:16;;;;;;;16.00;10.80;;;;;;;9.15;84.61;99115.63;130289;1256;114767;-59
2023/11/10 07:42:20;;;;;;;17.10;10.60;;;;;;;9.35;84.35;99111.20;130330;1257;115353;-60
2023/11/10 07:45:26;;;;;;;14.10;10.00;;;;;;;9.51;84.37;99105.73;130064;1256;115077;-59
2023/11/10 07:48:27;;;;;;;18.10;12.40;;;;;;;9.63;83.95;99101.39;130071;1254;115544;-59
2023/11/10 07:51:31;;;;;;;17.10;12.40;;;;;;;9.72;83.72;99099.70;130082;1254;114797;-59
2023/11/10 07:54:34;;;;;;;15.80;11.50;;;;;;;9.77;83.47;99097.45;130156;1256;114676;-59
2023/11/10 07:57:36;;;;;;;16.50;11.30;;;;;;;9.77;83.16;99098.50;130143;1267;114709;-59
2023/11/10 08:00:39;;;;;;;17.90;13.40;;;;;;;9.77;83.12;99098.00;130326;1257;115169;-60
2023/11/10 08:03:42;;;;;;;24.50;15.30;;;;;;;9.77;82.87;99098.89;130281;1254;115092;-59
2023/11/10 08:06:44;;;;;;;17.40;11.90;;;;;;;9.77;82.92;99093.02;130284;1256;114724;-59
2023/11/10 08:09:47;;;;;;;18.10;11.30;;;;;;;9.76;82.57;99085.59;130195;1257;114670;-60
2023/11/10 08:12:50;;;;;;;15.70;11.30;;;;;;;9.77;82.50;99092.09;130274;1269;115433;-58
2023/11/10 08:15:52;;;;;;;16.20;10.80;;;;;;;9.80;82.33;99087.09;130434;1274;114830;-58
2023/11/10 08:18:54;;;;;;;15.10;10.70;;;;;;;9.86;82.29;99088.64;130161;1257;115134;-59
2023/11/10 08:21:56;;;;;;;16.20;10.80;;;;;;;9.97;82.52;99090.60;130234;1255;115244;-58
2023/11/10 08:24:58;;;;;;;13.40;10.40;;;;;;;10.15;82.27;99092.27;130399;1255;115010;-59
2023/11/10 08:28:02;;;;;;;14.50;10.20;;;;;;;10.34;82.61;99087.39;130177;1275;114888;-58
2023/11/10 08:31:04;;;;;;;17.80;10.00;;;;;;;10.52;82.20;99083.16;130233;1265;115251;-59
2023/11/10 08:34:08;;;;;;;18.40;10.20;;;;;;;10.66;81.78;99083.81;130066;1266;114689;-60
2023/11/10 08:37:11;;;;;;;15.30;9.70;;;;;;;10.81;81.57;99076.55;130140;1257;114784;-61
2023/11/10 08:40:13;;;;;;;14.70;9.20;;;;;;;10.95;81.36;99071.82;130262;1256;115162;-59
2023/11/10 08:43:16;;;;;;;19.70;9.80;;;;;;;11.08;80.98;99069.98;130141;1255;114822;-59
2023/11/10 08:46:18;;;;;;;14.40;10.10;;;;;;;11.21;80.70;99082.11;129941;1275;114879;-60
2023/11/10 08:49:20;;;;;;;15.40;9.90;;;;;;;11.34;80.33;99084.23;129843;1262;116281;-60
2023/11/10 08:52:24;;;;;;;16.20;9.40;;;;;;;11.46;80.26;99078.36;130234;1267;114757;-58
2023/11/10 08:55:26;;;;;;;9.20;6.10;;;;;;;11.58;79.77;99078.23;130233;1275;114686;-59
2023/11/10 08:58:29;;;;;;;11.80;9.10;;;;;;;11.67;79.42;99077.53;130174;1255;115458;-58
2023/11/10 09:01:31;;;;;;;12.20;8.30;;;;;;;11.76;79.22;99079.06;130190;1256;114785;-58
2023/11/10 09:04:33;;;;;;;11.90;8.70;;;;;;;11.84;78.87;99082.34;130172;1257;114760;-59
2023/11/10 09:07:40;;;;;;;11.30;8.80;;;;;;;11.92;78.59;99087.67;130304;1257;114764;-58
2023/11/10 09:10:42;;;;;;;10.40;7.90;;;;;;;12.01;78.15;99088.98;130001;1264;126774;-61
2023/11/10 09:13:44;;;;;;;11.30;8.30;;;;;;;12.09;77.80;99089.28;130118;1254;114764;-59
2023/11/10 09:16:46;;;;;;;12.80;7.90;;;;;;;12.20;77.84;99085.67;130226;1256;115347;-58
2023/11/10 09:19:48;;;;;;;9.50;7.30;;;;;;;12.30;77.58;99082.18;129753;1262;115380;-59
2023/11/10 09:22:51;;;;;;;12.50;7.10;;;;;;;12.41;76.79;99082.07;130159;1268;114826;-66
2023/11/10 09:25:53;;;;;;;13.20;8.00;;;;;;;12.49;76.45;99077.30;130488;1257;114901;-65
2023/11/10 09:28:55;;;;;;;10.10;6.80;;;;;;;12.57;76.26;99079.73;130353;1254;114717;-68
2023/11/10 09:31:57;;;;;;;8.30;6.50;;;;;;;12.65;75.88;99078.09;130288;1256;114702;-69
2023/11/10 09:34:59;;;;;;;10.00;6.10;;;;;;;12.71;74.92;99069.23;130689;1267;115665;-67
2023/11/10 09:38:03;;;;;;;7.40;6.50;;;;;;;12.74;74.61;99066.82;130150;1254;116445;-64
2023/11/10 09:41:08;;;;;;;10.80;6.50;;;;;;;12.82;74.49;99067.63;130606;1256;114699;-64
2023/11/10 09:44:13;;;;;;;;;;;;;;;12.85;73.93;99070.83;130695;1257;114699;-63
2023/11/10 09:47:16;;;;;;;13.00;6.90;;;;;;;12.84;73.72;99069.78;130248;1257;114712;-63
2023/11/10 09:50:18;;;;;;;8.70;6.40;;;;;;;12.85;73.85;99062.52;130497;1256;116392;-64
2023/11/10 09:53:20;;;;;;;8.50;5.70;;;;;;;12.88;73.51;99060.86;130516;1257;114851;-68
2023/11/10 09:56:23;;;;;;;8.20;6.60;;;;;;;12.90;73.02;99058.56;130166;1261;115249;-68
2023/11/10 09:59:27;;;;;;;8.90;6.50;;;;;;;12.91;73.45;99052.74;130294;1257;114789;-70
2023/11/10 10:02:29;;;;;;;8.00;6.20;;;;;;;12.92;73.00;99051.91;130182;1259;114981;-65
2023/11/10 10:05:31;;;;;;;10.70;6.90;;;;;;;12.94;72.74;99053.98;130326;1259;114691;-66
2023/11/10 10:08:34;;;;;;;9.20;6.60;;;;;;;12.95;72.92;99046.92;130237;1261;114773;-65
2023/11/10 10:11:36;;;;;;;10.70;6.60;;;;;;;12.96;72.61;99047.16;130302;1262;128266;-69
2023/11/10 10:14:39;;;;;;;9.70;6.60;;;;;;;12.96;72.22;99044.52;130177;1275;114962;-70
2023/11/10 10:17:41;;;;;;;13.00;6.70;;;;;;;12.95;71.96;99040.14;130451;1256;114754;-66
2023/11/10 10:20:42;;;;;;;8.60;6.00;;;;;;;12.95;72.03;99035.95;130165;1260;114802;-69
2023/11/10 10:23:45;;;;;;;9.20;6.20;;;;;;;12.98;72.13;99033.08;130286;1259;114912;-66
2023/11/10 10:26:48;;;;;;;10.60;6.10;;;;;;;13.00;71.99;99033.95;130359;1259;114797;-68
2023/11/10 10:29:51;;;;;;;10.30;7.00;;;;;;;12.99;71.71;99027.75;130345;1257;115769;-66
2023/11/10 10:32:54;;;;;;;8.60;6.00;;;;;;;12.97;71.32;99021.32;130298;1254;128585;-66
2023/11/10 10:35:56;;;;;;;12.60;6.80;;;;;;;12.95;71.48;99019.67;130682;1257;115146;-72
2023/11/10 10:39:00;;;;;;;10.50;6.90;;;;;;;12.96;71.59;99019.96;130558;1257;114739;-65
2023/11/10 10:42:04;;;;;;;9.90;6.70;;;;;;;12.95;71.32;99021.79;130786;1256;114718;-71
2023/11/10 10:45:07;;;;;;;9.50;7.00;;;;;;;12.95;71.30;99016.83;130622;1257;114784;-69
2023/11/10 10:48:10;;;;;;;11.40;6.70;;;;;;;12.94;71.03;99014.19;130560;1256;114708;-74
2023/11/10 10:51:12;;;;;;;8.40;5.90;;;;;;;12.90;70.69;99005.88;130342;1259;114872;-81
2023/11/10 10:54:16;;;;;;;10.50;6.10;;;;;;;12.87;70.53;99007.02;130405;1259;114831;-66
2023/11/10 10:57:18;;;;;;;11.00;6.60;;;;;;;12.86;70.83;99013.19;130323;1259;114862;-66
2023/11/10 11:00:20;;;;;;;10.70;5.90;;;;;;;12.87;70.72;99009.55;130445;1253;116096;-68
2023/11/10 11:03:39;;;;;;;9.50;6.60;;;;;;;12.85;70.56;99009.71;130147;1262;114669;-64
2023/11/10 11:07:09;;;;;;;10.90;6.40;;;;;;;12.85;70.46;99002.89;130179;1260;128015;-66
2023/11/10 11:10:37;;;;;;;9.50;6.10;;;;;;;12.86;70.26;98998.85;130348;1254;115208;-68
2023/11/10 11:14:05;;;;;;;9.50;6.10;;;;;;;12.85;70.36;98996.81;130350;1259;114759;-68
2023/11/10 11:17:07;;;;;;;11.90;7.00;;;;;;;12.88;70.34;98995.63;130339;1259;115298;-65
2023/11/10 11:20:12;;;;;;;7.20;5.60;;;;;;;12.92;70.37;98990.67;130324;1260;115001;-67
2023/11/10 11:23:15;;;;;;;10.00;6.00;;;;;;;12.95;70.06;98986.15;130281;1254;128954;-65
2023/11/10 11:26:17;;;;;;;9.90;5.80;;;;;;;12.98;70.16;98985.54;130346;1268;116546;-67
2023/11/10 11:29:20;;;;;;;10.10;6.00;;;;;;;13.01;70.24;98984.69;130340;1260;114640;-66
2023/11/10 11:32:25;;;;;;;10.20;6.10;;;;;;;13.06;70.30;98990.41;130339;1260;114675;-65
2023/11/10 11:35:46;;;;;;;7.10;5.60;;;;;;;13.08;69.96;98989.21;130623;1257;114809;-65
2023/11/10 11:38:48;;;;;;;12.70;6.00;;;;;;;13.09;69.71;98992.00;130370;1259;114689;-66
2023/11/10 11:41:54;;;;;;;7.30;5.70;;;;;;;13.09;69.52;98990.91;130243;1259;115256;-65
2023/11/10 11:44:57;;;;;;;8.10;5.60;;;;;;;13.09;69.51;98991.06;130320;1259;115214;-65
2023/11/10 11:48:00;;;;;;;9.10;6.00;;;;;;;13.08;69.43;98988.14;130288;1257;115141;-68
2023/11/10 11:51:02;;;;;;;7.40;5.70;;;;;;;13.05;68.98;98983.02;130482;1260;114693;-65
2023/11/10 11:54:06;;;;;;;8.80;5.60;;;;;;;12.98;68.83;98984.78;130490;1257;114767;-63
2023/11/10 11:57:08;;;;;;;8.60;5.70;;;;;;;12.94;68.92;98984.23;130619;1255;114796;-64
2023/11/10 12:00:11;;;;;;;10.40;6.30;;;;;;;12.87;68.49;98989.32;130688;1254;115697;-66
2023/11/10 12:03:14;;;;;;;11.00;6.30;;;;;;;12.78;68.75;98989.66;130419;1262;115632;-67
2023/11/10 12:06:16;;;;;;;9.60;6.00;;;;;;;12.71;69.13;98991.96;130754;1273;115407;-69
2023/11/10 12:09:18;;;;;;;10.60;6.20;;;;;;;12.67;69.08;98984.64;130618;1260;114648;-66
2023/11/10 12:12:20;;;;;;;10.90;5.70;;;;;;;12.59;69.14;98979.81;130707;1253;114753;-66
2023/11/10 12:15:22;;;;;;;9.30;5.60;;;;;;;12.52;68.97;98969.66;130434;1269;114853;-67
2023/11/10 12:18:26;;;;;;;11.00;6.40;;;;;;;12.39;68.57;98971.02;130540;1256;114702;-66
2023/11/10 12:21:29;;;;;;;9.80;6.20;;;;;;;12.26;68.87;98976.50;130691;1257;114696;-67
2023/11/10 12:24:31;;;;;;;11.00;6.60;;;;;;;12.17;69.02;98983.83;130620;1256;114774;-66
2023/11/10 12:27:33;;;;;;;10.90;6.50;;;;;;;12.13;69.44;98984.65;130564;1256;114731;-68
2023/11/10 12:30:36;;;;;;;11.50;6.60;;;;;;;12.11;69.48;98981.22;130492;1254;114758;-68
2023/11/10 12:33:40;;;;;;;12.00;7.20;;;;;;;12.05;69.36;98980.68;130729;1258;114761;-67
2023/11/10 12:36:45;;;;;;;9.40;7.00;;;;;;;12.00;69.80;98978.84;130539;1267;129018;-67
2023/11/10 12:39:48;;;;;;;10.70;7.10;;;;;;;11.94;69.44;98975.87;130632;1256;114805;-66
2023/11/10 12:42:50;;;;;;;11.30;7.40;;;;;;;11.90;69.52;98972.31;130478;1256;114686;-66
2023/11/10 12:45:52;;;;;;;10.00;7.30;;;;;;;11.85;69.77;98965.87;130479;1254;114694;-65
2023/11/10 12:48:55;;;;;;;13.70;7.70;;;;;;;11.81;69.79;98967.73;130479;1258;114865;-63
2023/11/10 12:52:03;;;;;;;11.70;6.80;;;;;;;11.78;69.88;98965.13;130616;1273;115397;-67
2023/11/10 12:55:05;;;;;;;11.70;7.10;;;;;;;11.74;70.06;98964.35;130488;1260;129050;-66
2023/11/10 12:58:08;;;;;;;10.80;7.00;;;;;;;11.72;69.92;98966.34;130791;1265;114730;-62
2023/11/10 13:01:10;;;;;;;10.60;7.30;;;;;;;11.68;69.84;98968.69;130717;1257;114741;-65
2023/11/10 13:04:13;;;;;;;13.40;7.30;;;;;;;11.66;70.03;98969.61;130722;1256;114706;-63
2023/11/10 13:07:16;;;;;;;13.50;7.30;;;;;;;11.61;69.97;98966.02;130314;1254;114718;-65
2023/11/10 13:10:18;;;;;;;12.30;7.50;;;;;;;11.56;70.10;98966.97;130446;1257;114790;-65
2023/11/10 13:13:20;;;;;;;14.90;7.00;;;;;;;11.50;69.97;98968.86;130480;1256;114705;-69
2023/11/10 13:16:22;;;;;;;13.60;7.60;;;;;;;11.43;69.92;98969.02;130572;1258;114711;-65
2023/11/10 13:19:25;;;;;;;12.70;8.50;;;;;;;11.38;70.13;98971.27;130726;1257;115157;-65
2023/11/10 13:22:31;;;;;;;13.30;7.10;;;;;;;11.35;70.23;98970.66;130189;1262;114689;-67
2023/11/10 13:25:33;;;;;;;11.90;7.90;;;;;;;11.31;70.21;98968.11;130631;1262;114720;-67
2023/11/10 13:28:36;;;;;;;11.30;7.50;;;;;;;11.28;70.45;98965.43;130683;1255;115228;-67
2023/11/10 13:31:38;;;;;;;12.50;8.00;;;;;;;11.25;70.24;98962.28;130784;1264;114776;-67
2023/11/10 13:34:42;;;;;;;13.90;7.00;;;;;;;11.22;70.37;98961.61;130577;1264;114781;-66
2023/11/10 13:37:44;;;;;;;10.60;7.60;;;;;;;11.18;70.44;98964.02;130586;1256;115158;-66
2023/11/10 13:40:46;;;;;;;10.40;7.00;;;;;;;11.16;70.51;98970.13;130589;1266;115094;-67
2023/11/10 13:43:48;;;;;;;12.40;8.10;;;;;;;11.12;70.35;98969.81;130469;1265;114711;-67
2023/11/10 13:46:50;;;;;;;19.80;9.70;;;;;;;11.10;70.96;98967.28;130035;1257;114761;-66
2023/11/10 13:49:53;;;;;;;13.90;8.20;;;;;;;11.08;70.50;98966.70;130395;1261;115147;-67
2023/11/10 13:52:55;;;;;;;11.90;8.20;;;;;;;11.06;70.51;98966.48;130436;1259;114733;-69
2023/11/10 13:55:57;;;;;;;12.40;7.20;;;;;;;11.03;70.47;98964.55;130423;1265;114770;-66